Terminal Aerodrome Forecast
Issued by NWS Brownsville, TX

Home | Current Version | Previous Version | Text Only | Print | Product List | Glossary On
Versions: 1 2 3 4 5 6 7 8 9 10 11 12 13 14 15 16
000
FTUS44 KBRO 010531
TAFBRO
TAF
KBRO 010531Z 0106/0206 14008KT P6SM FEW030
     FM010900 14006KT P6SM VCSH SCT025
     FM011500 12012KT P6SM VCTS BKN030CB
     FM011700 12012G18KT P6SM -TSRA BKN040CB
     FM012200 12015G22KT P6SM BKN050
     FM020300 13010KT P6SM SCT030=

USA.gov is the U.S. government's official web portal to all federal, state and local government web resources and services.